Time;durP1;ratioP1;P1;durP2;ratioP2;P2;SDS_P1;SDS_P2;PMS_P1;PMS_P2;Temp;Humidity;BMP_temperature;BMP_pressure;BME280_temperature;BME280_humidity;BME280_pressure;Samples;Min_cycle;Max_cycle;Signal;HPM_P1;HPM_P2
2023/07/22 00:01:55;;;;;;;19.17;8.80;;;14.60;52.20;;;;;;5062523;28;46145;-78
2023/07/22 00:04:20;;;;;;;20.50;8.40;;;14.60;52.40;;;;;;5067985;28;46411;-79
2023/07/22 00:06:46;;;;;;;13.83;7.83;;;14.50;52.60;;;;;;5064355;28;46462;-78
2023/07/22 00:09:11;;;;;;;20.50;7.83;;;14.60;53.00;;;;;;5049927;28;47111;-79
2023/07/22 00:11:37;;;;;;;13.73;8.27;;;14.40;53.10;;;;;;5063923;28;52723;-78
2023/07/22 00:14:03;;;;;;;14.37;8.07;;;14.30;53.60;;;;;;5049164;28;46527;-83
2023/07/22 00:16:31;;;;;;;13.63;7.70;;;14.30;53.90;;;;;;5063510;28;46489;-80
2023/07/22 00:18:57;;;;;;;21.30;7.40;;;14.30;54.00;;;;;;5062533;28;46605;-79
2023/07/22 00:21:22;;;;;;;15.20;7.80;;;14.20;54.00;;;;;;5062005;28;46491;-80
2023/07/22 00:23:48;;;;;;;18.37;8.07;;;14.20;54.10;;;;;;5061874;28;46494;-81
2023/07/22 00:26:14;;;;;;;19.43;7.53;;;14.20;54.20;;;;;;5062653;28;46522;-80
2023/07/22 00:28:39;;;;;;;17.10;8.00;;;14.20;54.30;;;;;;5064164;28;46568;-80
2023/07/22 00:31:05;;;;;;;25.73;7.77;;;14.20;54.40;;;;;;5065092;28;47078;-79
2023/07/22 00:33:30;;;;;;;19.77;6.83;;;14.20;54.20;;;;;;5047281;28;47175;-79
2023/07/22 00:35:56;;;;;;;12.90;6.90;;;14.20;54.20;;;;;;5061928;28;46309;-80
2023/07/22 00:38:22;;;;;;;22.37;7.80;;;14.10;54.30;;;;;;5066498;28;46541;-80
2023/07/22 00:40:47;;;;;;;21.10;8.00;;;14.10;54.30;;;;;;5063906;28;48977;-81
2023/07/22 00:43:13;;;;;;;20.90;9.50;;;14.10;54.40;;;;;;5062287;28;46764;-79
2023/07/22 00:45:38;;;;;;;18.60;8.57;;;14.10;54.50;;;;;;5070016;28;46506;-79
2023/07/22 00:48:05;;;;;;;24.37;8.67;;;14.20;54.80;;;;;;5045377;28;46371;-79
2023/07/22 00:50:33;;;;;;;16.90;8.47;;;14.10;54.70;;;;;;5063403;28;49134;-80
2023/07/22 00:52:59;;;;;;;13.30;7.07;;;14.10;54.80;;;;;;5050348;28;46766;-81
2023/07/22 00:55:26;;;;;;;15.40;7.40;;;14.00;55.10;;;;;;5046842;28;46620;-80
2023/07/22 00:57:51;;;;;;;17.77;7.17;;;14.00;55.30;;;;;;5065046;28;46977;-79
2023/07/22 01:00:17;;;;;;;13.37;6.90;;;13.90;55.20;;;;;;5064146;28;46994;-80
2023/07/22 01:02:43;;;;;;;19.97;8.30;;;13.80;55.10;;;;;;5061173;28;46575;-78
2023/07/22 01:05:11;;;;;;;14.97;7.30;;;13.80;55.20;;;;;;5062517;28;46438;-79
2023/07/22 01:07:38;;;;;;;25.70;8.97;;;13.80;55.10;;;;;;5049949;28;46217;-80
2023/07/22 01:10:05;;;;;;;17.37;7.67;;;13.80;55.10;;;;;;5043905;28;49163;-79
2023/07/22 01:12:31;;;;;;;18.57;9.40;;;13.70;55.40;;;;;;5047450;28;46334;-79
2023/07/22 01:14:57;;;;;;;18.23;9.23;;;13.70;55.40;;;;;;5062098;28;46420;-79
2023/07/22 01:17:23;;;;;;;19.70;8.70;;;13.70;55.30;;;;;;5063465;28;46935;-79
2023/07/22 01:19:49;;;;;;;17.97;9.00;;;13.70;55.30;;;;;;5046111;28;48634;-79
2023/07/22 01:22:16;;;;;;;15.70;8.67;;;13.60;55.40;;;;;;5062565;28;45904;-79
2023/07/22 01:24:42;;;;;;;19.13;8.57;;;13.60;55.60;;;;;;5063623;28;46404;-80
2023/07/22 01:27:09;;;;;;;17.60;8.50;;;13.60;55.70;;;;;;5062293;28;46749;-79
2023/07/22 01:29:35;;;;;;;30.60;9.40;;;13.60;55.80;;;;;;5046504;28;48130;-81
2023/07/22 01:32:01;;;;;;;21.83;9.30;;;13.50;55.90;;;;;;5061818;28;46322;-80
2023/07/22 01:34:27;;;;;;;21.87;10.90;;;13.50;56.10;;;;;;5063455;28;46466;-81
2023/07/22 01:36:53;;;;;;;17.67;9.67;;;13.40;56.30;;;;;;5064050;28;46729;-80
2023/07/22 01:39:19;;;;;;;24.73;9.17;;;13.40;56.60;;;;;;5063292;28;46447;-79
2023/07/22 01:41:45;;;;;;;16.40;9.50;;;13.40;56.70;;;;;;5064888;28;46368;-78
2023/07/22 01:44:11;;;;;;;19.87;10.57;;;13.30;57.00;;;;;;5061813;28;45757;-79
2023/07/22 01:46:37;;;;;;;20.50;10.07;;;13.30;58.30;;;;;;5062908;28;46412;-79
2023/07/22 01:49:09;;;;;;;19.43;10.80;;;13.30;57.10;;;;;;5061497;28;46548;-80
2023/07/22 01:51:37;;;;;;;27.57;12.97;;;13.20;57.20;;;;;;5066054;28;46761;-79
2023/07/22 01:54:03;;;;;;;20.60;12.70;;;13.30;57.20;;;;;;5062815;28;47341;-81
2023/07/22 01:56:29;;;;;;;21.80;12.00;;;13.30;57.40;;;;;;5065387;28;46459;-79
2023/07/22 01:58:55;;;;;;;26.83;13.40;;;13.30;58.20;;;;;;5063935;28;46249;-80
2023/07/22 02:01:20;;;;;;;22.60;13.13;;;13.30;57.40;;;;;;5044413;28;46718;-81
2023/07/22 02:03:46;;;;;;;25.63;13.77;;;13.50;58.70;;;;;;5064053;28;46506;-77
2023/07/22 02:06:12;;;;;;;32.63;12.70;;;13.50;57.50;;;;;;5061192;28;46640;-79
2023/07/22 02:08:38;;;;;;;36.03;13.60;;;13.50;57.60;;;;;;5060686;28;46377;-81
2023/07/22 02:11:06;;;;;;;29.63;13.50;;;13.50;57.60;;;;;;5037591;28;46495;-80
2023/07/22 02:13:32;;;;;;;28.40;13.37;;;13.50;57.60;;;;;;5063297;28;46372;-80
2023/07/22 02:15:58;;;;;;;26.33;13.27;;;13.60;57.70;;;;;;5051254;28;46402;-81
2023/07/22 02:18:24;;;;;;;24.43;12.93;;;13.50;57.80;;;;;;5064489;28;48503;-80
2023/07/22 02:20:50;;;;;;;36.13;13.73;;;13.50;58.00;;;;;;5065693;28;46403;-80
2023/07/22 02:23:15;;;;;;;29.00;13.90;;;13.40;57.90;;;;;;5061460;28;46930;-78
2023/07/22 02:25:41;;;;;;;24.23;14.60;;;13.40;58.10;;;;;;5063931;28;46878;-79
2023/07/22 02:28:06;;;;;;;25.20;14.10;;;13.40;58.20;;;;;;5061844;28;46364;-80
2023/07/22 02:30:36;;;;;;;32.47;14.50;;;13.50;58.50;;;;;;5045852;28;47213;-79
2023/07/22 02:33:05;;;;;;;26.87;13.60;;;13.40;58.50;;;;;;5063829;28;46340;-80
2023/07/22 02:35:30;;;;;;;30.47;16.60;;;13.30;58.60;;;;;;5042543;28;45957;-79
2023/07/22 02:37:56;;;;;;;26.97;15.13;;;13.30;58.80;;;;;;5063318;28;46453;-81
2023/07/22 02:40:21;;;;;;;30.43;14.40;;;13.30;58.90;;;;;;5060610;28;46617;-80
2023/07/22 02:42:47;;;;;;;22.97;14.30;;;13.30;59.00;;;;;;5061001;28;46582;-79
2023/07/22 02:45:12;;;;;;;27.47;14.50;;;13.30;59.20;;;;;;5042408;28;46487;-79
2023/07/22 02:47:38;;;;;;;30.67;13.87;;;13.20;59.30;;;;;;5044850;28;47748;-80
2023/07/22 02:50:08;;;;;;;28.97;14.10;;;13.20;59.40;;;;;;5061824;28;46548;-81
2023/07/22 02:52:34;;;;;;;24.47;13.23;;;13.20;59.40;;;;;;5061345;28;46457;-81
2023/07/22 02:55:18;;;;;;;30.90;13.17;;;13.20;59.60;;;;;;5043636;28;46574;-80
2023/07/22 02:57:48;;;;;;;28.33;14.83;;;13.10;59.50;;;;;;5043320;28;48032;-80
2023/07/22 03:00:24;;;;;;;30.53;14.83;;;13.10;59.60;;;;;;5061254;28;46359;-80
2023/07/22 03:03:00;;;;;;;25.67;15.13;;;13.10;59.70;;;;;;5059915;28;46640;-79
2023/07/22 03:05:28;;;;;;;33.20;15.17;;;13.10;59.70;;;;;;5060797;28;46463;-79
2023/07/22 03:07:53;;;;;;;26.47;14.80;;;13.10;59.80;;;;;;5061929;28;48073;-81
2023/07/22 03:10:19;;;;;;;28.13;16.60;;;13.10;59.90;;;;;;5060809;28;46427;-80
2023/07/22 03:12:45;;;;;;;31.57;15.40;;;13.00;59.90;;;;;;5043298;28;46689;-80
2023/07/22 03:15:12;;;;;;;32.50;16.03;;;13.00;60.00;;;;;;5061609;28;46345;-81
2023/07/22 03:17:39;;;;;;;29.93;14.90;;;13.00;60.20;;;;;;5062704;28;46771;-80
2023/07/22 03:20:13;;;;;;;35.07;17.40;;;13.00;60.20;;;;;;5062581;28;45965;-80
2023/07/22 03:22:39;;;;;;;40.60;17.53;;;13.00;60.20;;;;;;5061313;28;46486;-80
2023/07/22 03:25:07;;;;;;;34.97;17.73;;;13.10;60.20;;;;;;5060958;28;46589;-79
2023/07/22 03:27:33;;;;;;;35.30;15.40;;;13.00;60.20;;;;;;5061831;28;46367;-80
2023/07/22 03:29:59;;;;;;;22.87;14.50;;;13.00;60.20;;;;;;5059664;28;46343;-80
2023/07/22 03:32:24;;;;;;;27.00;12.43;;;13.00;60.50;;;;;;5043553;28;46347;-81
2023/07/22 03:34:50;;;;;;;20.27;12.60;;;13.00;60.80;;;;;;5060744;28;46728;-80
2023/07/22 03:37:15;;;;;;;21.60;11.80;;;12.80;60.70;;;;;;5060647;28;49419;-79
2023/07/22 03:39:41;;;;;;;20.90;13.20;;;12.80;60.80;;;;;;5061981;28;46375;-79
2023/07/22 03:42:06;;;;;;;34.37;13.80;;;12.80;60.70;;;;;;5060382;28;47906;-80
2023/07/22 03:44:32;;;;;;;27.23;14.00;;;12.80;60.60;;;;;;5062789;28;46470;-80
2023/07/22 03:46:59;;;;;;;27.73;14.90;;;13.00;60.60;;;;;;5063098;28;46492;-78
2023/07/22 03:49:25;;;;;;;37.57;14.40;;;12.90;60.40;;;;;;5061430;28;46400;-81
2023/07/22 03:51:50;;;;;;;40.43;16.17;;;12.90;60.20;;;;;;5062686;28;46655;-80
2023/07/22 03:54:16;;;;;;;23.63;13.70;;;13.00;60.30;;;;;;5059602;28;46482;-80
2023/07/22 03:56:41;;;;;;;30.13;12.60;;;13.00;61.40;;;;;;5059760;28;46464;-81
2023/07/22 03:59:07;;;;;;;25.73;12.50;;;13.10;60.10;;;;;;5060278;28;45815;-80
2023/07/22 04:01:32;;;;;;;22.93;11.13;;;13.10;61.40;;;;;;5061601;28;46499;-79
2023/07/22 04:03:58;;;;;;;25.03;10.57;;;13.10;60.10;;;;;;5041868;28;46107;-80
2023/07/22 04:06:23;;;;;;;19.87;9.30;;;13.10;60.10;;;;;;5047155;28;48456;-79
2023/07/22 04:08:49;;;;;;;22.80;9.13;;;13.20;60.20;;;;;;5061466;28;46369;-81
2023/07/22 04:11:15;;;;;;;18.13;8.47;;;13.30;60.10;;;;;;5046229;28;46419;-79
2023/07/22 04:13:40;;;;;;;13.30;8.70;;;13.30;60.00;;;;;;5063670;28;46436;-80
2023/07/22 04:16:06;;;;;;;20.93;8.27;;;13.40;60.00;;;;;;5063556;28;46401;-80
2023/07/22 04:18:34;;;;;;;23.70;7.97;;;13.50;60.00;;;;;;5062563;28;45956;-78
2023/07/22 04:21:00;;;;;;;18.50;8.03;;;13.60;59.80;;;;;;5063048;28;46539;-79
2023/07/22 04:23:26;;;;;;;18.90;7.80;;;13.80;58.20;;;;;;5064972;28;46622;-80
2023/07/22 04:25:52;;;;;;;17.60;7.37;;;13.80;59.10;;;;;;5047168;28;48077;-79
2023/07/22 04:28:17;;;;;;;18.30;7.83;;;14.00;58.90;;;;;;5065421;28;46435;-81
2023/07/22 04:30:43;;;;;;;12.53;6.40;;;14.20;58.80;;;;;;5065115;28;46357;-80
2023/07/22 04:33:10;;;;;;;10.17;6.50;;;14.30;58.50;;;;;;5061009;28;46877;-80
2023/07/22 04:35:38;;;;;;;13.37;6.23;;;14.50;58.50;;;;;;5067816;28;46313;-79
2023/07/22 04:38:04;;;;;;;10.47;5.40;;;14.60;58.20;;;;;;5067238;28;46504;-81
2023/07/22 04:40:33;;;;;;;16.20;6.50;;;14.80;58.00;;;;;;5067597;28;46382;-80
2023/07/22 04:42:58;;;;;;;13.63;5.20;;;14.90;57.70;;;;;;5064860;28;46510;-79
2023/07/22 04:45:24;;;;;;;11.30;5.30;;;15.20;57.40;;;;;;5066188;28;46304;-80
2023/07/22 04:47:50;;;;;;;7.53;5.03;;;15.30;56.90;;;;;;5063928;28;46513;-80
2023/07/22 04:50:16;;;;;;;8.50;5.03;;;15.50;56.70;;;;;;5066359;28;46959;-82
2023/07/22 04:52:46;;;;;;;12.70;5.23;;;15.70;56.90;;;;;;5065171;28;46796;-81
2023/07/22 04:55:11;;;;;;;11.33;5.00;;;16.10;56.90;;;;;;5062333;28;46535;-81
2023/07/22 04:57:40;;;;;;;11.30;5.23;;;16.10;56.20;;;;;;5065803;28;46725;-79
2023/07/22 05:00:09;;;;;;;8.20;4.67;;;16.20;55.80;;;;;;5063629;28;46542;-82
2023/07/22 05:02:34;;;;;;;8.97;4.53;;;16.50;55.40;;;;;;5043272;28;46459;-80
2023/07/22 05:05:00;;;;;;;10.10;4.10;;;17.10;54.90;;;;;;5067141;28;46624;-81
2023/07/22 05:07:26;;;;;;;20.27;4.07;;;18.30;53.80;;;;;;5062645;28;46462;-81
2023/07/22 05:09:52;;;;;;;9.37;3.80;;;18.90;51.10;;;;;;5047339;28;46793;-79
2023/07/22 05:12:17;;;;;;;14.57;3.90;;;19.30;48.80;;;;;;5042787;28;46774;-85
2023/07/22 05:14:45;;;;;;;9.27;3.40;;;19.30;48.30;;;;;;5062442;28;46856;-81
2023/07/22 05:17:11;;;;;;;10.80;3.50;;;19.50;47.60;;;;;;5063544;28;46483;-82
2023/07/22 05:19:36;;;;;;;13.97;3.70;;;19.90;47.50;;;;;;5064716;28;46683;-81
2023/07/22 05:22:02;;;;;;;8.10;3.60;;;20.60;45.10;;;;;;5061317;28;46491;-80
2023/07/22 05:24:28;;;;;;;7.30;2.93;;;21.60;42.30;;;;;;5063135;28;47247;-82
2023/07/22 05:26:54;;;;;;;8.00;3.17;;;22.60;38.90;;;;;;5067413;28;46482;-80
2023/07/22 05:29:21;;;;;;;8.23;3.47;;;23.00;36.80;;;;;;5063325;28;46894;-81
2023/07/22 05:31:46;;;;;;;9.00;2.97;;;22.30;36.20;;;;;;5063768;28;46380;-80
2023/07/22 05:34:12;;;;;;;6.63;3.60;;;21.50;38.10;;;;;;5065250;28;46935;-81
2023/07/22 05:36:38;;;;;;;9.63;3.20;;;20.80;39.50;;;;;;5061458;28;46011;-82
2023/07/22 05:39:03;;;;;;;10.90;3.77;;;20.30;40.20;;;;;;5061861;28;46640;-80
2023/07/22 05:41:29;;;;;;;19.97;4.50;;;20.00;40.90;;;;;;5064908;28;46560;-81
2023/07/22 05:43:55;;;;;;;11.53;3.40;;;19.80;41.10;;;;;;5061732;28;46898;-81
2023/07/22 05:46:20;;;;;;;9.40;3.60;;;19.80;40.70;;;;;;5063535;28;46784;-80
2023/07/22 05:48:46;;;;;;;7.07;3.87;;;19.70;40.40;;;;;;5062211;28;46511;-83
2023/07/22 05:51:11;;;;;;;11.30;3.70;;;19.60;40.40;;;;;;5063831;28;46386;-81
2023/07/22 05:53:37;;;;;;;11.07;3.60;;;20.70;38.60;;;;;;5065810;28;46482;-82
2023/07/22 05:56:03;;;;;;;7.93;3.70;;;21.80;35.70;;;;;;5066014;28;46444;-82
2023/07/22 05:58:28;;;;;;;9.63;3.80;;;22.70;33.80;;;;;;5050998;28;46422;-81
2023/07/22 06:00:55;;;;;;;11.73;3.80;;;23.70;30.90;;;;;;5050448;28;46386;-80
2023/07/22 06:03:21;;;;;;;9.47;3.27;;;24.10;28.40;;;;;;5064258;28;46317;-80
2023/07/22 06:05:46;;;;;;;11.63;3.20;;;24.10;28.80;;;;;;5063913;28;46462;-83
2023/07/22 06:08:12;;;;;;;8.73;3.37;;;24.30;28.20;;;;;;5069355;28;46479;-80
2023/07/22 06:10:39;;;;;;;4.93;2.50;;;24.40;27.80;;;;;;5074495;28;45855;-81
2023/07/22 06:13:05;;;;;;;6.30;3.40;;;24.50;27.80;;;;;;5068599;28;48402;-79
2023/07/22 06:15:31;;;;;;;6.03;2.60;;;24.40;28.30;;;;;;5068604;28;46368;-81
2023/07/22 06:18:00;;;;;;;5.50;2.67;;;24.00;30.60;;;;;;5066024;28;47472;-80
2023/07/22 06:20:26;;;;;;;4.87;2.50;;;23.60;32.20;;;;;;5062521;28;46515;-82
2023/07/22 06:22:52;;;;;;;7.77;2.63;;;23.40;33.50;;;;;;5044062;28;48343;-82
2023/07/22 06:25:17;;;;;;;4.80;2.70;;;23.30;35.00;;;;;;5060125;28;46464;-80
2023/07/22 06:27:43;;;;;;;6.67;2.67;;;23.20;35.10;;;;;;5048030;28;46221;-81
2023/07/22 06:30:09;;;;;;;5.27;2.57;;;23.20;34.60;;;;;;5059908;28;46432;-80
2023/07/22 06:32:37;;;;;;;6.00;2.53;;;23.10;34.10;;;;;;5046183;28;48410;-80
2023/07/22 06:35:03;;;;;;;5.80;2.63;;;22.90;32.50;;;;;;5059169;27;46381;-78
2023/07/22 06:37:30;;;;;;;8.80;2.87;;;22.90;31.50;;;;;;5061879;28;46478;-81
2023/07/22 06:39:55;;;;;;;6.90;2.77;;;22.70;30.70;;;;;;5062691;28;46697;-80
2023/07/22 06:42:21;;;;;;;6.77;3.13;;;22.70;30.50;;;;;;5061804;28;49864;-79
2023/07/22 06:44:47;;;;;;;4.73;3.03;;;22.60;30.20;;;;;;5060799;28;46437;-81
2023/07/22 06:47:13;;;;;;;5.60;2.93;;;22.60;30.30;;;;;;5061536;28;46559;-80
2023/07/22 06:49:40;;;;;;;4.43;2.07;;;22.70;30.00;;;;;;5045202;28;46496;-81
2023/07/22 06:52:06;;;;;;;22.77;2.73;;;22.60;29.70;;;;;;5059867;28;46340;-79
2023/07/22 06:54:32;;;;;;;7.17;2.90;;;22.50;29.60;;;;;;5062729;28;46712;-79
2023/07/22 06:56:57;;;;;;;7.17;2.20;;;22.60;29.30;;;;;;5063561;28;46742;-81
2023/07/22 06:59:23;;;;;;;5.10;2.30;;;22.60;28.60;;;;;;5060794;28;46540;-79
2023/07/22 07:01:48;;;;;;;5.33;2.30;;;22.50;28.30;;;;;;5053441;28;47676;-79
2023/07/22 07:04:14;;;;;;;10.10;2.37;;;22.40;28.10;;;;;;5056660;28;47781;-80
2023/07/22 07:06:39;;;;;;;4.40;2.43;;;22.30;27.70;;;;;;5043637;28;46395;-79
2023/07/22 07:09:05;;;;;;;5.00;2.33;;;22.30;27.50;;;;;;5061980;28;46690;-77
2023/07/22 07:11:31;;;;;;;7.50;2.57;;;22.60;27.00;;;;;;5059817;28;46750;-78
2023/07/22 07:13:57;;;;;;;6.53;2.63;;;22.30;26.00;;;;;;5060020;28;46580;-79
2023/07/22 07:16:28;;;;;;;7.80;2.10;;;22.30;25.70;;;;;;5062703;28;46504;-80
2023/07/22 07:18:55;;;;;;;7.60;2.73;;;22.40;25.20;;;;;;5060283;27;46793;-80
2023/07/22 07:21:21;;;;;;;4.83;2.03;;;22.30;24.90;;;;;;5041243;28;48143;-79
2023/07/22 07:23:47;;;;;;;6.50;2.30;;;22.40;24.30;;;;;;5060150;28;46497;-79
2023/07/22 07:26:13;;;;;;;4.10;2.30;;;22.50;24.20;;;;;;5041072;28;46477;-79
2023/07/22 07:28:39;;;;;;;4.30;2.27;;;22.40;24.10;;;;;;5043947;28;46535;-79
2023/07/22 07:31:05;;;;;;;6.87;2.50;;;22.50;24.20;;;;;;5063276;28;47186;-81
2023/07/22 07:33:31;;;;;;;4.80;2.43;;;22.50;23.20;;;;;;5060704;27;46555;-79
2023/07/22 07:35:56;;;;;;;4.70;1.97;;;22.50;23.70;;;;;;5060683;28;45897;-78
2023/07/22 07:38:22;;;;;;;5.27;2.60;;;22.70;23.10;;;;;;5062165;28;46450;-78
2023/07/22 07:41:08;;;;;;;5.23;2.13;;;22.80;22.60;;;;;;5056609;28;46442;-80
2023/07/22 07:43:34;;;;;;;4.40;2.13;;;22.70;22.20;;;;;;5031162;28;47019;-79
2023/07/22 07:46:20;;;;;;;7.80;2.30;;;22.60;22.30;;;;;;5040873;28;46555;-83
2023/07/22 07:48:47;;;;;;;4.30;2.20;;;22.70;22.40;;;;;;5045466;28;46603;-79
2023/07/22 07:51:14;;;;;;;8.97;2.07;;;23.00;21.80;;;;;;5061033;28;47136;-80
2023/07/22 07:53:40;;;;;;;4.70;2.23;;;23.30;21.20;;;;;;5062892;28;46741;-77
2023/07/22 07:56:07;;;;;;;4.60;2.07;;;23.50;21.00;;;;;;5063109;28;46415;-78
2023/07/22 07:58:32;;;;;;;5.27;2.50;;;23.40;20.90;;;;;;5067358;28;46744;-79
2023/07/22 08:00:58;;;;;;;5.43;2.40;;;23.50;20.30;;;;;;5062420;28;46442;-78
2023/07/22 08:03:23;;;;;;;3.73;1.97;;;23.20;19.30;;;;;;5060857;28;46569;-80
2023/07/22 08:05:49;;;;;;;3.40;1.70;;;23.20;20.10;;;;;;5059533;28;46505;-81
2023/07/22 08:08:15;;;;;;;5.53;1.90;;;23.20;20.10;;;;;;5061975;28;46477;-78
2023/07/22 08:10:40;;;;;;;4.20;2.20;;;23.20;19.80;;;;;;5063673;28;46882;-78
2023/07/22 08:13:06;;;;;;;4.60;1.83;;;23.30;19.40;;;;;;5063741;27;45876;-80
2023/07/22 08:15:31;;;;;;;4.20;1.63;;;23.30;18.60;;;;;;5044727;28;46524;-79
2023/07/22 08:17:57;;;;;;;4.17;1.77;;;23.30;18.10;;;;;;5062269;28;46447;-78
2023/07/22 08:20:22;;;;;;;3.23;1.73;;;23.50;17.90;;;;;;5058499;28;47546;-79
2023/07/22 08:22:48;;;;;;;3.77;1.90;;;23.70;17.50;;;;;;5059250;28;46419;-80
2023/07/22 08:25:13;;;;;;;3.37;1.90;;;23.80;17.20;;;;;;5065458;28;46589;-77
2023/07/22 08:27:39;;;;;;;4.03;2.07;;;23.90;16.70;;;;;;5063287;28;46395;-78
2023/07/22 08:30:05;;;;;;;3.77;1.83;;;23.90;16.80;;;;;;5063258;28;46496;-79
2023/07/22 08:32:31;;;;;;;3.53;1.60;;;23.80;16.70;;;;;;5062711;28;45828;-80
2023/07/22 08:34:56;;;;;;;3.60;1.80;;;24.00;16.40;;;;;;5062193;28;46437;-80
2023/07/22 08:37:22;;;;;;;4.60;1.80;;;24.20;15.80;;;;;;5043567;28;46599;-77
2023/07/22 08:39:47;;;;;;;4.00;1.67;;;24.20;14.80;;;;;;5062413;28;47031;-78
2023/07/22 08:42:18;;;;;;;3.57;1.70;;;24.30;14.90;;;;;;5042333;28;46484;-80
2023/07/22 08:44:44;;;;;;;3.90;1.80;;;24.30;14.80;;;;;;5061236;28;46749;-76
2023/07/22 08:47:15;;;;;;;4.40;1.97;;;24.50;14.50;;;;;;5060117;28;46619;-79
2023/07/22 08:49:45;;;;;;;5.07;1.70;;;24.60;14.60;;;;;;5059904;28;46868;-82
2023/07/22 08:52:14;;;;;;;3.20;1.67;;;24.60;14.40;;;;;;5063388;28;46669;-79
2023/07/22 08:54:40;;;;;;;5.03;1.80;;;24.60;13.60;;;;;;5060882;28;46322;-79
2023/07/22 08:57:07;;;;;;;6.70;1.57;;;24.40;13.70;;;;;;5042183;28;46647;-82
2023/07/22 08:59:33;;;;;;;5.30;2.00;;;24.60;13.60;;;;;;5060624;27;48334;-80
2023/07/22 09:01:59;;;;;;;4.53;1.83;;;24.50;13.10;;;;;;5060791;28;46590;-79
2023/07/22 09:04:24;;;;;;;4.67;1.90;;;24.60;13.60;;;;;;5061423;28;47479;-79
2023/07/22 09:06:50;;;;;;;8.33;2.03;;;24.60;11.80;;;;;;5042314;28;46512;-78
2023/07/22 09:09:17;;;;;;;4.27;1.67;;;24.70;11.50;;;;;;5059521;28;46458;-77
2023/07/22 09:11:45;;;;;;;4.57;1.90;;;24.80;11.10;;;;;;5058944;28;46781;-78
2023/07/22 09:14:11;;;;;;;3.43;1.87;;;24.80;10.60;;;;;;5057957;28;46561;-79
2023/07/22 09:16:37;;;;;;;3.33;1.53;;;24.80;10.50;;;;;;5041538;28;46776;-77
2023/07/22 09:19:04;;;;;;;4.00;1.73;;;25.00;10.20;;;;;;5056616;28;48466;-78
2023/07/22 09:21:30;;;;;;;8.57;1.93;;;24.80;9.40;;;;;;5062409;28;45884;-78
2023/07/22 09:23:55;;;;;;;3.73;1.60;;;24.60;9.50;;;;;;5079762;28;46649;-77
2023/07/22 09:26:21;;;;;;;3.77;1.90;;;24.70;9.10;;;;;;5067906;28;46633;-77
2023/07/22 09:28:51;;;;;;;8.10;2.20;;;24.70;9.00;;;;;;5059443;28;46534;-78
2023/07/22 09:31:16;;;;;;;5.00;1.83;;;24.60;9.10;;;;;;5058867;28;46483;-77
2023/07/22 09:33:42;;;;;;;9.70;1.97;;;24.80;9.10;;;;;;5059092;28;46491;-76
2023/07/22 09:36:11;;;;;;;6.73;1.73;;;25.00;8.70;;;;;;5060220;28;46471;-79
2023/07/22 09:38:36;;;;;;;4.53;1.80;;;25.30;8.00;;;;;;5059985;28;47140;-79
2023/07/22 09:41:02;;;;;;;7.10;1.73;;;25.30;8.00;;;;;;5059976;28;46434;-77
2023/07/22 09:43:29;;;;;;;4.80;1.83;;;25.60;7.10;;;;;;5061688;28;46478;-80
2023/07/22 09:45:55;;;;;;;7.10;1.57;;;25.60;7.50;;;;;;5062472;28;46668;-78
2023/07/22 09:48:22;;;;;;;4.17;2.17;;;25.80;6.90;;;;;;5042925;28;47306;-79
2023/07/22 09:50:57;;;;;;;3.60;1.80;;;25.90;6.60;;;;;;5056477;28;46514;-79
2023/07/22 09:53:22;;;;;;;4.50;1.80;;;25.70;6.30;;;;;;5058491;28;47159;-78
2023/07/22 09:55:48;;;;;;;7.80;1.80;;;25.40;6.90;;;;;;5059165;28;46371;-79
2023/07/22 09:58:14;;;;;;;10.53;1.77;;;25.10;7.50;;;;;;5059076;28;46677;-80
2023/07/22 10:00:45;;;;;;;4.47;1.80;;;25.20;7.30;;;;;;5058233;28;46728;-79
2023/07/22 10:03:11;;;;;;;5.17;2.10;;;25.40;7.10;;;;;;5065544;28;46586;-79
2023/07/22 10:05:38;;;;;;;7.30;1.60;;;25.50;6.40;;;;;;5059332;28;46538;-78
2023/07/22 10:08:06;;;;;;;3.87;2.07;;;25.50;6.40;;;;;;5062142;28;46482;-78
2023/07/22 10:10:33;;;;;;;4.97;1.97;;;25.50;6.10;;;;;;5053763;28;45931;-77
2023/07/22 10:12:59;;;;;;;4.83;1.70;;;25.60;6.10;;;;;;5059107;28;46976;-79
2023/07/22 10:15:27;;;;;;;3.20;1.53;;;25.80;5.90;;;;;;5057939;28;46547;-77
2023/07/22 10:17:54;;;;;;;7.10;2.17;;;26.10;5.50;;;;;;5059515;28;47424;-77
2023/07/22 10:20:21;;;;;;;4.83;2.10;;;26.30;4.90;;;;;;5057507;28;47001;-78
2023/07/22 10:22:47;;;;;;;4.50;1.80;;;26.40;4.30;;;;;;5057713;28;46711;-79
2023/07/22 10:25:16;;;;;;;5.30;1.70;;;26.50;4.30;;;;;;5056383;28;46494;-77
2023/07/22 10:27:43;;;;;;;6.33;2.17;;;26.40;4.20;;;;;;5073238;28;46825;-78
2023/07/22 10:30:13;;;;;;;4.50;1.97;;;25.80;3.90;;;;;;5063312;28;46561;-78
2023/07/22 10:32:47;;;;;;;3.60;1.83;;;25.30;4.90;;;;;;5057395;28;46622;-79
2023/07/22 10:35:33;;;;;;;3.73;1.80;;;25.10;5.50;;;;;;5060065;27;46597;-77
2023/07/22 10:38:15;;;;;;;8.60;2.20;;;25.20;5.10;;;;;;5058833;28;46717;-78
2023/07/22 10:40:50;;;;;;;3.87;1.90;;;24.90;5.50;;;;;;5057651;28;46370;-79
2023/07/22 10:43:19;;;;;;;4.53;1.63;;;24.60;5.00;;;;;;5056921;28;46813;-78
2023/07/22 10:45:53;;;;;;;6.33;2.20;;;24.50;5.80;;;;;;5059684;28;46365;-78
2023/07/22 10:48:21;;;;;;;4.40;1.83;;;24.40;6.10;;;;;;5058920;28;47276;-77
2023/07/22 10:50:49;;;;;;;6.37;2.10;;;24.50;6.30;;;;;;5057576;28;46729;-79
2023/07/22 10:53:23;;;;;;;4.50;1.80;;;24.90;5.90;;;;;;5056830;28;46436;-76
2023/07/22 10:56:14;;;;;;;6.33;2.27;;;25.10;5.60;;;;;;5058317;28;46695;-78
2023/07/22 10:58:46;;;;;;;5.20;1.77;;;25.20;4.50;;;;;;5056488;28;47696;-80
2023/07/22 11:01:27;;;;;;;5.03;1.83;;;25.40;3.70;;;;;;5059935;28;46914;-77
2023/07/22 11:04:22;;;;;;;3.63;1.97;;;25.60;3.80;;;;;;5059150;28;46556;-79
2023/07/22 11:06:48;;;;;;;4.20;2.00;;;25.90;3.90;;;;;;5061436;28;46502;-80
2023/07/22 11:09:34;;;;;;;4.20;1.80;;;26.20;4.10;;;;;;5042847;28;48196;-78
2023/07/22 11:12:07;;;;;;;9.23;2.13;;;26.30;4.20;;;;;;5059627;28;46918;-78
2023/07/22 11:14:35;;;;;;;3.87;1.97;;;26.50;3.50;;;;;;5061119;28;46600;-79
2023/07/22 11:17:05;;;;;;;5.23;1.60;;;26.30;4.20;;;;;;5062248;28;46430;-80
2023/07/22 11:19:33;;;;;;;3.90;1.90;;;26.00;3.60;;;;;;5060655;28;47060;-77
2023/07/22 11:21:59;;;;;;;4.10;1.80;;;26.00;4.00;;;;;;5061269;28;46465;-80
2023/07/22 11:24:24;;;;;;;9.10;1.97;;;26.20;2.50;;;;;;5060922;27;46474;-77
2023/07/22 11:26:52;;;;;;;7.93;1.60;;;26.30;2.40;;;;;;5056325;28;46742;-78
2023/07/22 11:29:18;;;;;;;10.20;1.90;;;26.50;2.00;;;;;;5035266;28;48038;-79
2023/07/22 11:31:46;;;;;;;3.57;1.70;;;26.40;2.50;;;;;;5060304;28;46131;-77
2023/07/22 11:34:14;;;;;;;3.50;1.90;;;26.60;2.20;;;;;;5041107;28;46800;-78
2023/07/22 11:36:40;;;;;;;4.20;1.87;;;26.80;2.00;;;;;;5060435;28;46460;-78
2023/07/22 11:39:06;;;;;;;5.03;2.13;;;27.00;2.00;;;;;;5063242;28;46831;-78
2023/07/22 11:41:33;;;;;;;4.60;2.00;;;27.20;1.90;;;;;;5061266;28;46479;-79
2023/07/22 11:43:59;;;;;;;4.83;2.10;;;26.90;2.00;;;;;;5059104;28;46372;-77
2023/07/22 11:46:26;;;;;;;4.13;1.60;;;26.70;2.50;;;;;;5041581;28;46478;-80
2023/07/22 11:48:53;;;;;;;4.33;1.80;;;26.60;2.60;;;;;;5060956;28;48054;-79
2023/07/22 11:51:23;;;;;;;3.50;1.80;;;26.70;2.50;;;;;;5063269;28;46554;-77
2023/07/22 11:53:54;;;;;;;3.80;1.90;;;26.80;2.00;;;;;;5046363;28;46459;-80
2023/07/22 11:56:28;;;;;;;4.20;1.97;;;26.60;1.90;;;;;;5054844;28;46218;-78
2023/07/22 11:58:57;;;;;;;3.30;1.50;;;26.60;2.10;;;;;;5043014;28;48039;-78
2023/07/22 12:01:23;;;;;;;4.07;1.70;;;26.60;2.10;;;;;;5058926;28;46426;-77
2023/07/22 12:03:54;;;;;;;5.10;1.90;;;26.60;1.50;;;;;;5057394;28;46680;-78
2023/07/22 12:06:20;;;;;;;4.13;2.00;;;26.60;1.60;;;;;;5061852;28;46488;-78
2023/07/22 12:08:48;;;;;;;4.30;1.77;;;26.70;1.50;;;;;;5062136;28;47657;-77
2023/07/22 12:11:18;;;;;;;4.40;1.80;;;26.80;1.40;;;;;;5050046;28;46333;-76
2023/07/22 12:13:50;;;;;;;7.50;1.70;;;26.80;1.00;;;;;;5055412;28;46173;-79
2023/07/22 12:16:22;;;;;;;4.03;2.00;;;26.80;1.00;;;;;;5057715;28;46482;-78
2023/07/22 12:18:48;;;;;;;3.60;1.80;;;26.80;1.00;;;;;;5037002;28;47935;-80
2023/07/22 12:21:14;;;;;;;3.47;1.80;;;26.90;1.00;;;;;;5055958;28;46463;-78
2023/07/22 12:23:42;;;;;;;4.20;1.93;;;26.90;1.00;;;;;;5056765;28;46524;-78
2023/07/22 12:26:08;;;;;;;4.57;2.30;;;26.80;1.00;;;;;;5038816;28;46514;-78
2023/07/22 12:28:34;;;;;;;4.00;2.00;;;26.90;1.00;;;;;;5056020;28;46448;-79
2023/07/22 12:31:00;;;;;;;7.57;1.77;;;26.90;1.00;;;;;;5056530;28;46717;-79
2023/07/22 12:33:26;;;;;;;3.77;1.87;;;26.60;1.00;;;;;;5058157;28;46705;-78
2023/07/22 12:35:56;;;;;;;3.50;1.80;;;26.50;1.80;;;;;;5060914;28;47016;-78
2023/07/22 12:38:22;;;;;;;4.50;2.03;;;26.30;1.00;;;;;;5041377;28;48285;-78
2023/07/22 12:40:47;;;;;;;3.70;1.87;;;26.30;1.00;;;;;;5044725;28;46575;-79
2023/07/22 12:43:13;;;;;;;10.67;2.00;;;26.30;1.00;;;;;;5059971;28;46424;-75